sensor_id;sensor_type;location;lat;lon;timestamp;pressure;altitude;pressure_sealevel;temperature;humidity
15674;BME280;7937;48.090;16.212;2023-02-04T00:02:35;97718.44;;;5.02;69.38
15674;BME280;7937;48.090;16.212;2023-02-04T00:05:39;97745.91;;;4.94;69.48
15674;BME280;7937;48.090;16.212;2023-02-04T00:08:41;97727.41;;;5.01;69.63
15674;BME280;7937;48.090;16.212;2023-02-04T00:11:43;97733.69;;;5.06;69.04
15674;BME280;7937;48.090;16.212;2023-02-04T00:14:46;97727.59;;;5.06;69.32
15674;BME280;7937;48.090;16.212;2023-02-04T00:17:48;97727.81;;;4.98;70.25
15674;BME280;7937;48.090;16.212;2023-02-04T00:20:50;97729.25;;;4.94;69.28
15674;BME280;7937;48.090;16.212;2023-02-04T00:23:52;97738.38;;;4.98;68.40
15674;BME280;7937;48.090;16.212;2023-02-04T00:26:57;97697.56;;;4.67;69.00
15674;BME280;7937;48.090;16.212;2023-02-04T00:29:59;97746.91;;;4.86;69.44
15674;BME280;7937;48.090;16.212;2023-02-04T00:33:01;97732.28;;;4.84;69.18
15674;BME280;7937;48.090;16.212;2023-02-04T00:36:03;97747.72;;;4.94;69.14
15674;BME280;7937;48.090;16.212;2023-02-04T00:39:05;97737.97;;;4.94;68.93
15674;BME280;7937;48.090;16.212;2023-02-04T00:42:07;97744.88;;;4.88;69.06
15674;BME280;7937;48.090;16.212;2023-02-04T00:45:10;97691.28;;;4.61;67.84
15674;BME280;7937;48.090;16.212;2023-02-04T00:48:13;97731.47;;;4.90;67.68
15674;BME280;7937;48.090;16.212;2023-02-04T00:51:15;97726.81;;;4.85;66.63
15674;BME280;7937;48.090;16.212;2023-02-04T00:54:17;97695.97;;;4.79;66.62
15674;BME280;7937;48.090;16.212;2023-02-04T00:57:20;97705.69;;;4.85;66.94
15674;BME280;7937;48.090;16.212;2023-02-04T01:00:22;97700.22;;;4.94;65.27
15674;BME280;7937;48.090;16.212;2023-02-04T01:03:24;97706.47;;;4.92;66.21
15674;BME280;7937;48.090;16.212;2023-02-04T01:06:26;97695.91;;;4.92;66.00
15674;BME280;7937;48.090;16.212;2023-02-04T01:09:29;97675.03;;;4.91;64.83
15674;BME280;7937;48.090;16.212;2023-02-04T01:12:32;97700.22;;;4.94;64.27
15674;BME280;7937;48.090;16.212;2023-02-04T01:15:34;97694.72;;;4.95;63.63
15674;BME280;7937;48.090;16.212;2023-02-04T01:18:36;97692.06;;;4.95;63.97
15674;BME280;7937;48.090;16.212;2023-02-04T01:21:38;97690.66;;;4.99;64.30
15674;BME280;7937;48.090;16.212;2023-02-04T01:24:41;97661.41;;;4.87;64.49
15674;BME280;7937;48.090;16.212;2023-02-04T01:28:02;97686.78;;;4.95;64.79
15674;BME280;7937;48.090;16.212;2023-02-04T01:31:04;97681.09;;;4.91;65.12
15674;BME280;7937;48.090;16.212;2023-02-04T01:34:06;97664.66;;;4.96;64.20
15674;BME280;7937;48.090;16.212;2023-02-04T01:37:09;97682.31;;;4.96;64.61
15674;BME280;7937;48.090;16.212;2023-02-04T01:40:11;97688.81;;;5.00;64.53
15674;BME280;7937;48.090;16.212;2023-02-04T01:43:13;97667.91;;;5.05;65.39
15674;BME280;7937;48.090;16.212;2023-02-04T01:46:15;97669.34;;;4.87;65.44
15674;BME280;7937;48.090;16.212;2023-02-04T01:49:18;97636.50;;;4.63;65.58
15674;BME280;7937;48.090;16.212;2023-02-04T01:52:20;97677.69;;;4.84;65.84
15674;BME280;7937;48.090;16.212;2023-02-04T01:55:27;97676.25;;;4.82;64.76
15674;BME280;7937;48.090;16.212;2023-02-04T01:58:31;97681.53;;;4.88;65.12
15674;BME280;7937;48.090;16.212;2023-02-04T02:01:38;97686.00;;;4.81;66.09
15674;BME280;7937;48.090;16.212;2023-02-04T02:04:42;97680.91;;;4.86;64.26
15674;BME280;7937;48.090;16.212;2023-02-04T02:07:44;97679.28;;;4.92;65.19
15674;BME280;7937;48.090;16.212;2023-02-04T02:10:48;97675.63;;;4.86;65.83
15674;BME280;7937;48.090;16.212;2023-02-04T02:13:50;97690.84;;;4.91;65.22
15674;BME280;7937;48.090;16.212;2023-02-04T02:16:52;97681.72;;;4.87;66.52
15674;BME280;7937;48.090;16.212;2023-02-04T02:19:54;97676.03;;;4.90;64.80
15674;BME280;7937;48.090;16.212;2023-02-04T02:23:10;97702.66;;;4.88;64.42
15674;BME280;7937;48.090;16.212;2023-02-04T02:26:17;97677.25;;;4.94;64.01
15674;BME280;7937;48.090;16.212;2023-02-04T02:29:22;97691.06;;;4.96;64.57
15674;BME280;7937;48.090;16.212;2023-02-04T02:32:24;97674.59;;;5.01;64.05
15674;BME280;7937;48.090;16.212;2023-02-04T02:35:26;97683.50;;;5.06;63.36
15674;BME280;7937;48.090;16.212;2023-02-04T02:38:30;97694.91;;;5.00;64.53
15674;BME280;7937;48.090;16.212;2023-02-04T02:41:35;97680.06;;;5.06;63.96
15674;BME280;7937;48.090;16.212;2023-02-04T02:44:37;97704.66;;;5.00;64.71
15674;BME280;7937;48.090;16.212;2023-02-04T02:47:39;97683.16;;;4.89;64.59
15674;BME280;7937;48.090;16.212;2023-02-04T02:50:41;97659.00;;;4.86;64.37
15674;BME280;7937;48.090;16.212;2023-02-04T02:53:45;97639.72;;;4.72;65.25
15674;BME280;7937;48.090;16.212;2023-02-04T02:56:49;97677.88;;;4.89;65.86
15674;BME280;7937;48.090;16.212;2023-02-04T02:59:52;97651.72;;;4.68;65.33
15674;BME280;7937;48.090;16.212;2023-02-04T03:03:05;97682.75;;;4.86;65.69
15674;BME280;7937;48.090;16.212;2023-02-04T03:06:16;97687.22;;;4.79;66.17
15674;BME280;7937;48.090;16.212;2023-02-04T03:09:24;97701.03;;;4.81;66.27
15674;BME280;7937;48.090;16.212;2023-02-04T03:12:28;97665.13;;;4.73;66.00
15674;BME280;7937;48.090;16.212;2023-02-04T03:15:30;97678.06;;;4.81;67.16
15674;BME280;7937;48.090;16.212;2023-02-04T03:18:33;97664.09;;;4.74;65.97
15674;BME280;7937;48.090;16.212;2023-02-04T03:21:36;97651.72;;;4.61;67.49
15674;BME280;7937;48.090;16.212;2023-02-04T03:24:38;97676.69;;;4.65;68.24
15674;BME280;7937;48.090;16.212;2023-02-04T03:27:40;97667.53;;;4.61;69.04
15674;BME280;7937;48.090;16.212;2023-02-04T03:30:43;97655.38;;;4.40;68.02
15674;BME280;7937;48.090;16.212;2023-02-04T03:33:45;97633.06;;;4.36;66.02
15674;BME280;7937;48.090;16.212;2023-02-04T03:36:48;97684.19;;;4.62;67.13
15674;BME280;7937;48.090;16.212;2023-02-04T03:39:50;97668.56;;;4.74;64.89
15674;BME280;7937;48.090;16.212;2023-02-04T03:42:52;97648.47;;;4.59;67.26
15674;BME280;7937;48.090;16.212;2023-02-04T03:45:54;97656.56;;;4.71;66.35
15674;BME280;7937;48.090;16.212;2023-02-04T03:48:56;97647.44;;;4.74;66.37
15674;BME280;7937;48.090;16.212;2023-02-04T03:51:58;97604.25;;;4.42;68.38
15674;BME280;7937;48.090;16.212;2023-02-04T03:55:00;97650.31;;;4.59;66.37
15674;BME280;7937;48.090;16.212;2023-02-04T03:58:03;97642.56;;;4.57;64.30
15674;BME280;7937;48.090;16.212;2023-02-04T04:01:06;97671.59;;;4.84;63.88
15674;BME280;7937;48.090;16.212;2023-02-04T04:04:08;97693.94;;;4.88;64.31
15674;BME280;7937;48.090;16.212;2023-02-04T04:07:10;97671.59;;;4.84;64.57
15674;BME280;7937;48.090;16.212;2023-02-04T04:10:12;97699.00;;;4.89;64.54
15674;BME280;7937;48.090;16.212;2023-02-04T04:13:14;97709.56;;;4.83;65.52
15674;BME280;7937;48.090;16.212;2023-02-04T04:16:16;97690.25;;;4.76;65.90
15674;BME280;7937;48.090;16.212;2023-02-04T04:19:18;97693.94;;;4.55;66.42
15674;BME280;7937;48.090;16.212;2023-02-04T04:22:20;97714.22;;;4.61;67.00
15674;BME280;7937;48.090;16.212;2023-02-04T04:25:22;97695.75;;;4.61;67.12
15674;BME280;7937;48.090;16.212;2023-02-04T04:28:24;97728.84;;;4.50;67.18
15674;BME280;7937;48.090;16.212;2023-02-04T04:31:26;97708.94;;;4.54;66.21
15674;BME280;7937;48.090;16.212;2023-02-04T04:34:28;97721.94;;;4.56;65.65
15674;BME280;7937;48.090;16.212;2023-02-04T04:37:30;97738.78;;;4.61;65.25
15674;BME280;7937;48.090;16.212;2023-02-04T04:40:32;97740.00;;;4.65;64.26
15674;BME280;7937;48.090;16.212;2023-02-04T04:43:34;97761.72;;;4.68;63.46
15674;BME280;7937;48.090;16.212;2023-02-04T04:46:37;97810.00;;;4.61;65.15
15674;BME280;7937;48.090;16.212;2023-02-04T04:49:41;97833.34;;;4.58;62.64
15674;BME280;7937;48.090;16.212;2023-02-04T04:52:43;97788.59;;;4.23;63.03
15674;BME280;7937;48.090;16.212;2023-02-04T04:55:45;97850.94;;;4.37;63.13
15674;BME280;7937;48.090;16.212;2023-02-04T04:58:47;97844.53;;;4.05;63.53
15674;BME280;7937;48.090;16.212;2023-02-04T05:01:49;97894.28;;;4.22;63.32
15674;BME280;7937;48.090;16.212;2023-02-04T05:04:51;97942.31;;;4.10;62.07
15674;BME280;7937;48.090;16.212;2023-02-04T05:07:53;97942.66;;;4.01;62.59
15674;BME280;7937;48.090;16.212;2023-02-04T05:10:55;97957.50;;;3.80;64.40
15674;BME280;7937;48.090;16.212;2023-02-04T05:13:57;97992.16;;;3.34;67.07
15674;BME280;7937;48.090;16.212;2023-02-04T05:16:59;97996.16;;;3.09;69.77
15674;BME280;7937;48.090;16.212;2023-02-04T05:20:02;98018.44;;;2.92;68.48
15674;BME280;7937;48.090;16.212;2023-02-04T05:23:04;98034.59;;;2.74;67.92
15674;BME280;7937;48.090;16.212;2023-02-04T05:26:06;98055.19;;;2.70;66.83
15674;BME280;7937;48.090;16.212;2023-02-04T05:29:08;98067.66;;;2.62;65.73
15674;BME280;7937;48.090;16.212;2023-02-04T05:32:11;98051.75;;;2.55;64.97
15674;BME280;7937;48.090;16.212;2023-02-04T05:35:13;98050.75;;;2.56;63.37
15674;BME280;7937;48.090;16.212;2023-02-04T05:38:15;98045.59;;;2.63;62.53
15674;BME280;7937;48.090;16.212;2023-02-04T05:41:17;98081.69;;;2.69;60.65
15674;BME280;7937;48.090;16.212;2023-02-04T05:44:19;98073.00;;;2.68;60.35
15674;BME280;7937;48.090;16.212;2023-02-04T05:47:21;98113.53;;;2.74;60.21
15674;BME280;7937;48.090;16.212;2023-02-04T05:50:23;98104.00;;;2.73;60.83
15674;BME280;7937;48.090;16.212;2023-02-04T05:53:41;98109.72;;;2.62;59.62
15674;BME280;7937;48.090;16.212;2023-02-04T05:56:44;98093.56;;;2.50;59.42
15674;BME280;7937;48.090;16.212;2023-02-04T05:59:47;98102.00;;;2.60;58.28
15674;BME280;7937;48.090;16.212;2023-02-04T06:02:49;98137.94;;;2.68;57.89
15674;BME280;7937;48.090;16.212;2023-02-04T06:05:51;98172.84;;;2.62;57.78
15674;BME280;7937;48.090;16.212;2023-02-04T06:08:53;98129.75;;;2.63;57.25
15674;BME280;7937;48.090;16.212;2023-02-04T06:11:55;98148.53;;;2.59;56.95
15674;BME280;7937;48.090;16.212;2023-02-04T06:14:58;98171.19;;;2.61;58.30
15674;BME280;7937;48.090;16.212;2023-02-04T06:18:00;98158.94;;;2.53;56.94
15674;BME280;7937;48.090;16.212;2023-02-04T06:21:02;98158.38;;;2.43;57.08
15674;BME280;7937;48.090;16.212;2023-02-04T06:24:05;98155.94;;;2.56;56.95
15674;BME280;7937;48.090;16.212;2023-02-04T06:27:07;98192.75;;;2.56;56.83
15674;BME280;7937;48.090;16.212;2023-02-04T06:30:09;98206.28;;;2.53;57.79
15674;BME280;7937;48.090;16.212;2023-02-04T06:33:12;98205.28;;;2.54;56.89
15674;BME280;7937;48.090;16.212;2023-02-04T06:36:14;98235.22;;;2.53;58.29
15674;BME280;7937;48.090;16.212;2023-02-04T06:39:16;98235.69;;;2.56;57.97
15674;BME280;7937;48.090;16.212;2023-02-04T06:42:18;98268.13;;;2.49;58.18
15674;BME280;7937;48.090;16.212;2023-02-04T06:45:20;98255.97;;;2.48;58.43
15674;BME280;7937;48.090;16.212;2023-02-04T06:48:22;98281.88;;;2.51;57.92
15674;BME280;7937;48.090;16.212;2023-02-04T06:51:24;98284.38;;;2.52;57.67
15674;BME280;7937;48.090;16.212;2023-02-04T06:54:27;98303.13;;;2.49;58.07
15674;BME280;7937;48.090;16.212;2023-02-04T06:57:29;98323.75;;;2.38;58.76
15674;BME280;7937;48.090;16.212;2023-02-04T07:00:31;98336.22;;;2.36;57.10
15674;BME280;7937;48.090;16.212;2023-02-04T07:03:33;98333.81;;;2.26;58.79
15674;BME280;7937;48.090;16.212;2023-02-04T07:06:35;98344.28;;;2.34;57.94
15674;BME280;7937;48.090;16.212;2023-02-04T07:09:37;98378.66;;;2.32;57.40
15674;BME280;7937;48.090;16.212;2023-02-04T07:12:41;98366.16;;;2.35;57.47
15674;BME280;7937;48.090;16.212;2023-02-04T07:15:43;98391.28;;;2.37;58.17
15674;BME280;7937;48.090;16.212;2023-02-04T07:18:45;98391.78;;;2.32;57.80
15674;BME280;7937;48.090;16.212;2023-02-04T07:21:47;98417.09;;;2.33;58.09
15674;BME280;7937;48.090;16.212;2023-02-04T07:24:49;98430.41;;;2.32;57.35
15674;BME280;7937;48.090;16.212;2023-02-04T07:27:51;98433.06;;;2.32;56.90
15674;BME280;7937;48.090;16.212;2023-02-04T07:30:53;98451.97;;;2.27;58.42
15674;BME280;7937;48.090;16.212;2023-02-04T07:33:56;98475.25;;;2.30;57.90
15674;BME280;7937;48.090;16.212;2023-02-04T07:36:58;98479.38;;;2.33;57.89
15674;BME280;7937;48.090;16.212;2023-02-04T07:40:00;98487.75;;;2.37;59.01
15674;BME280;7937;48.090;16.212;2023-02-04T07:43:02;98531.97;;;2.17;60.39
15674;BME280;7937;48.090;16.212;2023-02-04T07:46:06;98521.00;;;2.05;59.96
15674;BME280;7937;48.090;16.212;2023-02-04T07:49:08;98546.28;;;2.06;57.96
15674;BME280;7937;48.090;16.212;2023-02-04T07:52:10;98542.03;;;2.13;59.15
15674;BME280;7937;48.090;16.212;2023-02-04T07:55:13;98551.03;;;2.19;58.56
15674;BME280;7937;48.090;16.212;2023-02-04T07:58:15;98564.50;;;2.24;57.12
15674;BME280;7937;48.090;16.212;2023-02-04T08:01:17;98577.28;;;2.35;56.12
15674;BME280;7937;48.090;16.212;2023-02-04T08:04:19;98571.41;;;2.33;57.04
15674;BME280;7937;48.090;16.212;2023-02-04T08:07:21;98588.34;;;2.22;57.40
15674;BME280;7937;48.090;16.212;2023-02-04T08:10:23;98591.28;;;2.19;57.63
15674;BME280;7937;48.090;16.212;2023-02-04T08:13:25;98590.31;;;2.04;56.37
15674;BME280;7937;48.090;16.212;2023-02-04T08:16:27;98608.56;;;1.97;57.57
15674;BME280;7937;48.090;16.212;2023-02-04T08:19:29;98633.66;;;1.92;58.11
15674;BME280;7937;48.090;16.212;2023-02-04T08:22:31;98662.56;;;1.92;57.11
15674;BME280;7937;48.090;16.212;2023-02-04T08:25:35;98674.72;;;1.85;56.15
15674;BME280;7937;48.090;16.212;2023-02-04T08:28:37;98697.84;;;1.81;54.24
15674;BME280;7937;48.090;16.212;2023-02-04T08:31:39;98690.31;;;1.86;52.89
15674;BME280;7937;48.090;16.212;2023-02-04T08:34:41;98695.75;;;2.01;52.93
15674;BME280;7937;48.090;16.212;2023-02-04T08:37:44;98691.31;;;2.01;51.98
15674;BME280;7937;48.090;16.212;2023-02-04T08:40:46;98697.06;;;2.05;51.13
15674;BME280;7937;48.090;16.212;2023-02-04T08:43:48;98687.41;;;2.22;50.70
15674;BME280;7937;48.090;16.212;2023-02-04T08:46:50;98698.91;;;2.53;50.81
15674;BME280;7937;48.090;16.212;2023-02-04T08:49:52;98723.88;;;2.49;50.78
15674;BME280;7937;48.090;16.212;2023-02-04T08:52:54;98712.88;;;2.62;49.54
15674;BME280;7937;48.090;16.212;2023-02-04T08:55:56;98740.81;;;2.55;50.57
15674;BME280;7937;48.090;16.212;2023-02-04T08:58:58;98728.31;;;2.49;51.89
15674;BME280;7937;48.090;16.212;2023-02-04T09:02:00;98734.06;;;2.69;53.08
15674;BME280;7937;48.090;16.212;2023-02-04T09:05:04;98738.69;;;2.67;51.12
15674;BME280;7937;48.090;16.212;2023-02-04T09:08:06;98763.50;;;2.56;50.54
15674;BME280;7937;48.090;16.212;2023-02-04T09:11:08;98759.75;;;2.67;52.44
15674;BME280;7937;48.090;16.212;2023-02-04T09:14:12;98774.84;;;2.65;53.21
15674;BME280;7937;48.090;16.212;2023-02-04T09:17:15;98761.84;;;2.55;54.24
15674;BME280;7937;48.090;16.212;2023-02-04T09:20:17;98770.72;;;2.70;52.80
15674;BME280;7937;48.090;16.212;2023-02-04T09:23:19;98785.38;;;3.05;52.99
15674;BME280;7937;48.090;16.212;2023-02-04T09:26:22;98789.81;;;2.89;53.22
15674;BME280;7937;48.090;16.212;2023-02-04T09:29:24;98807.56;;;2.78;56.78
15674;BME280;7937;48.090;16.212;2023-02-04T09:32:26;98768.25;;;2.44;54.62
15674;BME280;7937;48.090;16.212;2023-02-04T09:35:28;98829.09;;;2.66;52.82
15674;BME280;7937;48.090;16.212;2023-02-04T09:38:30;98844.56;;;2.69;52.28
15674;BME280;7937;48.090;16.212;2023-02-04T09:41:33;98842.72;;;2.45;52.67
15674;BME280;7937;48.090;16.212;2023-02-04T09:44:36;98850.56;;;2.28;52.52
15674;BME280;7937;48.090;16.212;2023-02-04T09:47:38;98856.13;;;2.17;53.22
15674;BME280;7937;48.090;16.212;2023-02-04T09:50:41;98866.25;;;2.04;53.46
15674;BME280;7937;48.090;16.212;2023-02-04T09:53:43;98878.94;;;2.09;53.05
15674;BME280;7937;48.090;16.212;2023-02-04T09:56:45;98889.59;;;2.07;54.18
15674;BME280;7937;48.090;16.212;2023-02-04T09:59:48;98881.09;;;2.13;52.45
15674;BME280;7937;48.090;16.212;2023-02-04T10:02:51;98885.75;;;2.36;53.73
15674;BME280;7937;48.090;16.212;2023-02-04T10:05:54;98891.97;;;3.01;51.39
15674;BME280;7937;48.090;16.212;2023-02-04T10:08:56;98894.44;;;3.03;49.73
15674;BME280;7937;48.090;16.212;2023-02-04T10:11:58;98905.63;;;2.97;50.54
15674;BME280;7937;48.090;16.212;2023-02-04T10:15:01;98928.34;;;2.39;52.67
15674;BME280;7937;48.090;16.212;2023-02-04T10:18:05;98939.44;;;2.25;52.62
15674;BME280;7937;48.090;16.212;2023-02-04T10:21:38;98954.03;;;2.53;51.83
15674;BME280;7937;48.090;16.212;2023-02-04T10:24:41;98952.31;;;5.10;46.15
15674;BME280;7937;48.090;16.212;2023-02-04T10:28:09;98955.06;;;6.15;40.84
15674;BME280;7937;48.090;16.212;2023-02-04T10:31:32;98919.28;;;5.14;40.05
15674;BME280;7937;48.090;16.212;2023-02-04T10:34:38;98943.69;;;4.62;42.92
15674;BME280;7937;48.090;16.212;2023-02-04T10:37:40;98943.75;;;3.99;43.74
15674;BME280;7937;48.090;16.212;2023-02-04T10:40:43;98932.13;;;3.28;44.33
15674;BME280;7937;48.090;16.212;2023-02-04T10:43:45;98947.78;;;3.21;46.62
15674;BME280;7937;48.090;16.212;2023-02-04T10:46:47;98973.44;;;3.11;47.48
15674;BME280;7937;48.090;16.212;2023-02-04T10:50:02;98970.13;;;3.09;47.07
15674;BME280;7937;48.090;16.212;2023-02-04T10:53:09;98952.19;;;3.04;47.70
15674;BME280;7937;48.090;16.212;2023-02-04T10:56:30;98956.47;;;2.97;47.98
15674;BME280;7937;48.090;16.212;2023-02-04T10:59:33;98950.78;;;2.68;49.65
15674;BME280;7937;48.090;16.212;2023-02-04T11:06:40;98988.81;;;2.39;53.40
15674;BME280;7937;48.090;16.212;2023-02-04T11:09:42;98976.69;;;2.12;53.90
15674;BME280;7937;48.090;16.212;2023-02-04T11:12:58;98959.53;;;2.00;52.87
15674;BME280;7937;48.090;16.212;2023-02-04T11:19:36;98985.25;;;2.48;50.76
15674;BME280;7937;48.090;16.212;2023-02-04T11:22:44;98942.56;;;2.63;53.52
15674;BME280;7937;48.090;16.212;2023-02-04T11:26:10;98983.00;;;3.20;51.74
15674;BME280;7937;48.090;16.212;2023-02-04T11:32:34;98973.44;;;3.27;48.50
15674;BME280;7937;48.090;16.212;2023-02-04T11:35:38;98987.41;;;3.20;48.60
15674;BME280;7937;48.090;16.212;2023-02-04T11:39:06;98955.78;;;2.87;50.11
15674;BME280;7937;48.090;16.212;2023-02-04T11:42:37;99008.53;;;2.77;50.69
15674;BME280;7937;48.090;16.212;2023-02-04T11:45:41;99007.66;;;2.61;50.64
15674;BME280;7937;48.090;16.212;2023-02-04T11:48:44;98971.09;;;2.07;52.16
15674;BME280;7937;48.090;16.212;2023-02-04T11:51:46;99014.19;;;2.48;52.30
15674;BME280;7937;48.090;16.212;2023-02-04T11:54:57;99022.00;;;2.66;49.35
15674;BME280;7937;48.090;16.212;2023-02-04T11:57:59;99032.09;;;2.87;49.67
15674;BME280;7937;48.090;16.212;2023-02-04T12:01:01;99024.41;;;3.10;48.03
15674;BME280;7937;48.090;16.212;2023-02-04T12:04:05;99019.88;;;3.69;47.46
15674;BME280;7937;48.090;16.212;2023-02-04T12:07:11;99036.53;;;3.94;46.85
15674;BME280;7937;48.090;16.212;2023-02-04T12:10:22;99034.41;;;3.81;46.09
15674;BME280;7937;48.090;16.212;2023-02-04T12:13:26;98993.84;;;3.17;47.10
15674;BME280;7937;48.090;16.212;2023-02-04T12:16:48;99025.06;;;3.04;45.55
15674;BME280;7937;48.090;16.212;2023-02-04T12:19:54;99037.41;;;3.03;45.11
15674;BME280;7937;48.090;16.212;2023-02-04T12:22:56;99056.78;;;2.94;47.20
15674;BME280;7937;48.090;16.212;2023-02-04T12:25:58;99032.53;;;2.74;45.72
15674;BME280;7937;48.090;16.212;2023-02-04T12:29:00;99019.13;;;2.51;46.89
15674;BME280;7937;48.090;16.212;2023-02-04T12:32:04;99026.22;;;2.59;46.72
15674;BME280;7937;48.090;16.212;2023-02-04T12:35:06;99032.00;;;2.63;46.98
15674;BME280;7937;48.090;16.212;2023-02-04T12:38:08;99021.41;;;2.89;48.21
15674;BME280;7937;48.090;16.212;2023-02-04T12:41:11;99018.88;;;3.21;46.98
15674;BME280;7937;48.090;16.212;2023-02-04T12:44:13;99020.53;;;3.30;45.78
15674;BME280;7937;48.090;16.212;2023-02-04T12:47:16;99002.84;;;2.98;45.63
15674;BME280;7937;48.090;16.212;2023-02-04T12:50:18;99031.34;;;3.19;45.98
15674;BME280;7937;48.090;16.212;2023-02-04T12:53:23;99045.44;;;2.94;45.59
15674;BME280;7937;48.090;16.212;2023-02-04T12:56:25;98998.31;;;2.66;47.58
15674;BME280;7937;48.090;16.212;2023-02-04T12:59:27;99038.75;;;2.65;46.41
15674;BME280;7937;48.090;16.212;2023-02-04T13:02:31;99043.63;;;2.52;46.31
15674;BME280;7937;48.090;16.212;2023-02-04T13:05:33;99043.66;;;2.60;45.44
15674;BME280;7937;48.090;16.212;2023-02-04T13:08:36;99053.63;;;2.82;45.51
15674;BME280;7937;48.090;16.212;2023-02-04T13:11:38;99047.38;;;2.83;46.03
15674;BME280;7937;48.090;16.212;2023-02-04T13:14:41;99066.84;;;2.65;45.75
15674;BME280;7937;48.090;16.212;2023-02-04T13:17:44;99062.03;;;2.52;46.35
15674;BME280;7937;48.090;16.212;2023-02-04T13:20:46;99058.19;;;2.38;48.10
15674;BME280;7937;48.090;16.212;2023-02-04T13:23:48;99074.94;;;2.37;48.46
15674;BME280;7937;48.090;16.212;2023-02-04T13:26:50;99065.53;;;2.35;47.63
15674;BME280;7937;48.090;16.212;2023-02-04T13:29:52;99075.63;;;2.21;46.88
15674;BME280;7937;48.090;16.212;2023-02-04T13:32:54;99067.81;;;2.29;46.83
15674;BME280;7937;48.090;16.212;2023-02-04T13:35:56;99074.88;;;2.29;47.50
15674;BME280;7937;48.090;16.212;2023-02-04T13:38:58;99082.50;;;2.14;46.67
15674;BME280;7937;48.090;16.212;2023-02-04T13:42:01;99086.50;;;2.00;45.22
15674;BME280;7937;48.090;16.212;2023-02-04T13:45:07;99091.53;;;1.94;47.62
15674;BME280;7937;48.090;16.212;2023-02-04T13:48:13;99092.81;;;1.90;48.04
15674;BME280;7937;48.090;16.212;2023-02-04T13:51:16;99092.25;;;1.78;47.40
15674;BME280;7937;48.090;16.212;2023-02-04T13:54:18;99092.63;;;1.83;48.74
15674;BME280;7937;48.090;16.212;2023-02-04T13:57:20;99098.91;;;1.90;47.86
15674;BME280;7937;48.090;16.212;2023-02-04T14:00:23;99101.75;;;1.97;47.71
15674;BME280;7937;48.090;16.212;2023-02-04T14:03:26;99091.47;;;2.03;47.39
15674;BME280;7937;48.090;16.212;2023-02-04T14:06:29;99114.50;;;2.10;47.57
15674;BME280;7937;48.090;16.212;2023-02-04T14:09:34;99104.38;;;1.97;45.91
15674;BME280;7937;48.090;16.212;2023-02-04T14:12:36;99119.00;;;1.81;44.77
15674;BME280;7937;48.090;16.212;2023-02-04T14:15:38;99122.19;;;1.85;45.90
15674;BME280;7937;48.090;16.212;2023-02-04T14:18:42;99126.78;;;1.83;45.59
15674;BME280;7937;48.090;16.212;2023-02-04T14:21:44;99127.50;;;1.93;45.89
15674;BME280;7937;48.090;16.212;2023-02-04T14:24:47;99128.78;;;1.89;45.49
15674;BME280;7937;48.090;16.212;2023-02-04T14:27:49;99141.03;;;1.80;46.74
15674;BME280;7937;48.090;16.212;2023-02-04T14:30:52;99142.28;;;1.76;47.47
15674;BME280;7937;48.090;16.212;2023-02-04T14:33:55;99135.53;;;1.74;47.73
15674;BME280;7937;48.090;16.212;2023-02-04T14:36:57;99143.25;;;1.75;47.84
15674;BME280;7937;48.090;16.212;2023-02-04T14:39:59;99141.91;;;1.71;48.38
15674;BME280;7937;48.090;16.212;2023-02-04T14:43:01;99131.19;;;1.65;47.91
15674;BME280;7937;48.090;16.212;2023-02-04T14:46:04;99136.53;;;1.73;47.32
15674;BME280;7937;48.090;16.212;2023-02-04T14:49:06;99142.72;;;1.72;47.54
15674;BME280;7937;48.090;16.212;2023-02-04T14:52:08;99152.94;;;1.75;47.36
15674;BME280;7937;48.090;16.212;2023-02-04T14:55:12;99101.44;;;1.46;48.00
15674;BME280;7937;48.090;16.212;2023-02-04T14:58:15;99163.63;;;1.73;46.00
15674;BME280;7937;48.090;16.212;2023-02-04T15:01:18;99160.28;;;1.71;45.74
15674;BME280;7937;48.090;16.212;2023-02-04T15:04:20;99161.38;;;1.78;45.84
15674;BME280;7937;48.090;16.212;2023-02-04T15:07:22;99162.78;;;1.73;46.64
15674;BME280;7937;48.090;16.212;2023-02-04T15:10:25;99174.19;;;1.64;45.44
15674;BME280;7937;48.090;16.212;2023-02-04T15:13:27;99182.91;;;1.64;46.76
15674;BME280;7937;48.090;16.212;2023-02-04T15:16:30;99184.75;;;1.72;44.91
15674;BME280;7937;48.090;16.212;2023-02-04T15:19:32;99188.97;;;1.65;44.75
15674;BME280;7937;48.090;16.212;2023-02-04T15:22:34;99173.38;;;1.63;45.83
15674;BME280;7937;48.090;16.212;2023-02-04T15:25:36;99196.25;;;1.71;45.13
15674;BME280;7937;48.090;16.212;2023-02-04T15:28:38;99203.41;;;1.51;45.04
15674;BME280;7937;48.090;16.212;2023-02-04T15:31:41;99212.56;;;1.47;46.19
15674;BME280;7937;48.090;16.212;2023-02-04T15:34:43;99202.63;;;1.41;46.51
15674;BME280;7937;48.090;16.212;2023-02-04T15:37:45;99206.00;;;1.33;47.46
15674;BME280;7937;48.090;16.212;2023-02-04T15:40:47;99212.78;;;1.26;46.04
15674;BME280;7937;48.090;16.212;2023-02-04T15:43:49;99227.56;;;1.27;46.63
15674;BME280;7937;48.090;16.212;2023-02-04T15:46:52;99223.44;;;1.24;46.18
15674;BME280;7937;48.090;16.212;2023-02-04T15:49:55;99230.94;;;1.19;45.88
15674;BME280;7937;48.090;16.212;2023-02-04T15:52:57;99232.19;;;1.15;46.66
15674;BME280;7937;48.090;16.212;2023-02-04T15:56:00;99247.78;;;1.17;47.05
15674;BME280;7937;48.090;16.212;2023-02-04T15:59:02;99213.16;;;1.03;48.10
15674;BME280;7937;48.090;16.212;2023-02-04T16:02:04;99252.53;;;1.03;47.99
15674;BME280;7937;48.090;16.212;2023-02-04T16:05:07;99256.06;;;1.12;48.51
15674;BME280;7937;48.090;16.212;2023-02-04T16:08:09;99265.91;;;1.10;47.08
15674;BME280;7937;48.090;16.212;2023-02-04T16:11:11;99216.50;;;0.96;47.67
15674;BME280;7937;48.090;16.212;2023-02-04T16:14:14;99272.38;;;1.16;47.97
15674;BME280;7937;48.090;16.212;2023-02-04T16:17:16;99273.59;;;1.21;48.45
15674;BME280;7937;48.090;16.212;2023-02-04T16:20:19;99273.47;;;1.13;49.19
15674;BME280;7937;48.090;16.212;2023-02-04T16:23:22;99272.09;;;1.19;48.13
15674;BME280;7937;48.090;16.212;2023-02-04T16:26:24;99285.09;;;1.11;48.26
15674;BME280;7937;48.090;16.212;2023-02-04T16:29:27;99276.00;;;1.05;47.31
15674;BME280;7937;48.090;16.212;2023-02-04T16:32:29;99285.13;;;1.01;47.77
15674;BME280;7937;48.090;16.212;2023-02-04T16:38:58;99294.03;;;1.27;48.33